Terminal Aerodrome Forecast
Issued by NWS

Current Version | Previous Version | Text Only | Print | Product List | Glossary On
Versions: 1 2 3 4 5 6 7 8 9 10 11 12 13 14
000
FTUS44 KEPZ 291134
TAFTCS
TAF
KTCS 291134Z 2912/3012 33008KT P6SM FEW060 SCT120
     FM291500 06010KT P6SM SCT040 BKN100
     FM291900 06012KT P6SM VCTS SCT040CB BKN100
     FM300600 01006KT P6SM SCT040 BKN100=

USA.gov is the U.S. government's official web portal to all federal, state and local government web resources and services.